createdAt,value
2016-06-10T00:00:13.083Z,0
2016-06-10T00:01:12.898Z,0
2016-06-10T00:02:13.026Z,0
2016-06-10T00:03:12.858Z,0
2016-06-10T00:04:12.845Z,0
2016-06-10T00:05:12.958Z,0
2016-06-10T00:06:12.945Z,0
2016-06-10T00:07:12.949Z,0
2016-06-10T00:08:12.764Z,0
2016-06-10T00:09:13.205Z,0
2016-06-10T00:10:13.770Z,0
2016-06-10T00:11:12.851Z,0
2016-06-10T00:12:12.823Z,0
2016-06-10T00:13:12.654Z,0
2016-06-10T00:14:12.642Z,0
2016-06-10T00:15:12.754Z,0
2016-06-10T00:16:12.726Z,0
2016-06-10T00:17:12.714Z,0
2016-06-10T00:18:12.701Z,0
2016-06-10T00:19:12.672Z,0
2016-06-10T00:20:12.660Z,0
2016-06-10T00:21:12.632Z,0
2016-06-10T00:22:12.604Z,0
2016-06-10T00:23:12.434Z,0
2016-06-10T00:24:13.251Z,0
2016-06-10T00:25:12.551Z,0
2016-06-10T00:26:12.522Z,0
2016-06-10T00:27:12.510Z,0
2016-06-10T00:28:12.466Z,0
2016-06-10T00:29:12.469Z,0
2016-06-10T00:30:12.441Z,0
2016-06-10T00:31:12.412Z,0
2016-06-10T00:32:12.400Z,0
2016-06-10T00:33:12.371Z,0
2016-06-10T00:34:12.344Z,0
2016-06-10T00:35:12.332Z,0
2016-06-10T00:36:12.303Z,0
2016-06-10T00:37:12.275Z,0
2016-06-10T00:38:12.262Z,0
2016-06-10T00:39:12.234Z,0
2016-06-10T00:40:13.081Z,0
2016-06-10T00:41:12.193Z,0
2016-06-10T00:42:12.181Z,0
2016-06-10T00:43:12.169Z,0
2016-06-10T00:44:12.124Z,0
2016-06-10T00:45:12.112Z,0
2016-06-10T00:46:12.084Z,0
2016-06-10T00:47:12.072Z,0
2016-06-10T00:48:12.043Z,0
2016-06-10T00:49:11.874Z,0
2016-06-10T00:50:12.003Z,0
2016-06-10T00:51:11.990Z,0
2016-06-10T00:52:11.977Z,0
2016-06-10T00:53:11.930Z,0
2016-06-10T00:54:11.918Z,0
2016-06-10T00:55:12.236Z,0
2016-06-10T00:56:11.877Z,0
2016-06-10T00:57:11.849Z,0
2016-06-10T00:58:11.836Z,0
2016-06-10T00:59:11.792Z,0
2016-06-10T01:00:11.781Z,0
2016-06-10T01:01:11.768Z,0
2016-06-10T01:02:11.740Z,0
2016-06-10T01:03:11.727Z,0
2016-06-10T01:04:11.699Z,0
2016-06-10T01:05:11.702Z,0
2016-06-10T01:06:11.658Z,0
2016-06-10T01:07:11.630Z,0
2016-06-10T01:08:11.617Z,0
2016-06-10T01:09:11.589Z,0
2016-06-10T01:10:11.342Z,0
2016-06-10T01:11:11.549Z,0
2016-06-10T01:12:11.364Z,0
2016-06-10T01:13:11.492Z,0
2016-06-10T01:14:11.480Z,0
2016-06-10T01:15:11.452Z,0
2016-06-10T01:16:11.439Z,0
2016-06-10T01:17:11.426Z,0
2016-06-10T01:18:11.382Z,0
2016-06-10T01:19:11.370Z,0
2016-06-10T01:20:11.185Z,0
2016-06-10T01:21:11.346Z,0
2016-06-10T01:22:11.301Z,0
2016-06-10T01:23:11.272Z,0
2016-06-10T01:24:11.260Z,0
2016-06-10T01:25:11.248Z,0
2016-06-10T01:26:11.219Z,0
2016-06-10T01:27:11.192Z,0
2016-06-10T01:28:11.178Z,0
2016-06-10T01:29:11.151Z,0
2016-06-10T01:30:11.122Z,0
2016-06-10T01:31:11.110Z,0
2016-06-10T01:32:11.081Z,0
2016-06-10T01:33:11.069Z,0
2016-06-10T01:34:11.041Z,0
2016-06-10T01:35:11.028Z,0
2016-06-10T01:36:11.000Z,0
2016-06-10T01:37:10.973Z,0
2016-06-10T01:38:10.959Z,0
2016-06-10T01:39:10.946Z,0
2016-06-10T01:40:11.029Z,0
2016-06-10T01:41:10.735Z,0
2016-06-10T01:42:10.862Z,0
2016-06-10T01:43:10.834Z,0
2016-06-10T01:44:10.822Z,0
2016-06-10T01:45:10.794Z,0
2016-06-10T01:46:10.765Z,0
2016-06-10T01:47:10.800Z,0
2016-06-10T01:48:10.724Z,0
2016-06-10T01:49:10.712Z,0
2016-06-10T01:50:10.684Z,0
2016-06-10T01:51:10.671Z,0
2016-06-10T01:52:10.644Z,0
2016-06-10T01:53:10.615Z,0
2016-06-10T01:54:10.617Z,0
2016-06-10T01:55:10.606Z,0
2016-06-10T01:56:10.546Z,0
2016-06-10T01:57:10.533Z,0
2016-06-10T01:58:10.505Z,0
2016-06-10T01:59:10.493Z,0
2016-06-10T02:00:10.465Z,0
2016-06-10T02:01:10.296Z,0
2016-06-10T02:02:10.424Z,0
2016-06-10T02:03:10.395Z,0
2016-06-10T02:04:10.367Z,0
2016-06-10T02:05:10.355Z,0
2016-06-10T02:06:10.343Z,0
2016-06-10T02:07:10.314Z,0
2016-06-10T02:08:10.286Z,0
2016-06-10T02:09:10.274Z,0
2016-06-10T02:10:10.463Z,0
2016-06-10T02:11:10.077Z,0
2016-06-10T02:12:10.204Z,0
2016-06-10T02:13:10.176Z,0
2016-06-10T02:14:10.148Z,0
2016-06-10T02:15:10.136Z,0
2016-06-10T02:16:10.107Z,0
2016-06-10T02:17:10.079Z,0
2016-06-10T02:18:09.911Z,0
2016-06-10T02:19:10.038Z,0
2016-06-10T02:20:10.026Z,0
2016-06-10T02:21:09.857Z,0
2016-06-10T02:22:09.969Z,0
2016-06-10T02:23:09.957Z,0
2016-06-10T02:24:09.944Z,0
2016-06-10T02:25:10.776Z,0
2016-06-10T02:26:10.435Z,0
2016-06-10T02:27:09.860Z,0
2016-06-10T02:28:09.832Z,0
2016-06-10T02:29:09.819Z,0
2016-06-10T02:30:09.807Z,0
2016-06-10T02:31:09.779Z,0
2016-06-10T02:32:09.750Z,0
2016-06-10T02:33:09.737Z,0
2016-06-10T02:34:09.710Z,0
2016-06-10T02:35:09.698Z,0
2016-06-10T02:36:09.668Z,0
2016-06-10T02:37:09.656Z,0
2016-06-10T02:38:09.629Z,0
2016-06-10T02:39:09.654Z,0
2016-06-10T02:40:09.679Z,0
2016-06-10T02:41:09.688Z,0
2016-06-10T02:42:09.698Z,0
2016-06-10T02:43:09.713Z,0
2016-06-10T02:44:09.714Z,0
2016-06-10T02:45:09.715Z,0
2016-06-10T02:46:09.685Z,0
2016-06-10T02:47:09.671Z,0
2016-06-10T02:48:09.652Z,0
2016-06-10T02:49:09.488Z,0
2016-06-10T02:50:09.622Z,0
2016-06-10T02:51:09.457Z,0
2016-06-10T02:52:09.434Z,0
2016-06-10T02:53:09.565Z,0
2016-06-10T02:54:09.539Z,0
2016-06-10T02:55:10.340Z,0
2016-06-10T02:56:10.283Z,0
2016-06-10T02:57:09.491Z,5
2016-06-10T02:58:09.480Z,5
2016-06-10T02:59:09.452Z,5
2016-06-10T03:00:09.425Z,5
2016-06-10T03:01:09.429Z,5
2016-06-10T03:02:09.230Z,5
2016-06-10T03:03:09.359Z,5
2016-06-10T03:04:09.345Z,10
2016-06-10T03:05:09.317Z,10
2016-06-10T03:06:09.305Z,10
2016-06-10T03:07:09.260Z,10
2016-06-10T03:08:09.249Z,10
2016-06-10T03:09:09.236Z,10
2016-06-10T03:10:09.239Z,10
2016-06-10T03:11:09.852Z,15
2016-06-10T03:12:09.011Z,15
2016-06-10T03:13:09.139Z,15
2016-06-10T03:14:09.111Z,15
2016-06-10T03:15:09.099Z,20
2016-06-10T03:16:09.070Z,20
2016-06-10T03:17:09.041Z,20
2016-06-10T03:18:09.014Z,20
2016-06-10T03:19:09.047Z,25
2016-06-10T03:20:08.972Z,25
2016-06-10T03:21:08.975Z,25
2016-06-10T03:22:08.932Z,30
2016-06-10T03:23:08.904Z,30
2016-06-10T03:24:08.906Z,30
2016-06-10T03:25:09.645Z,35
2016-06-10T03:26:09.304Z,35
2016-06-10T03:27:08.666Z,35
2016-06-10T03:28:08.794Z,40
2016-06-10T03:29:08.782Z,40
2016-06-10T03:30:08.753Z,40
2016-06-10T03:31:08.742Z,45
2016-06-10T03:32:08.697Z,45
2016-06-10T03:33:08.684Z,50
2016-06-10T03:34:08.673Z,55
2016-06-10T03:35:08.643Z,55
2016-06-10T03:36:08.615Z,60
2016-06-10T03:37:08.447Z,60
2016-06-10T03:38:08.575Z,65
2016-06-10T03:39:08.547Z,70
2016-06-10T03:40:08.628Z,75
2016-06-10T03:41:09.194Z,75
2016-06-10T03:42:08.493Z,80
2016-06-10T03:43:08.451Z,85
2016-06-10T03:44:08.437Z,85
2016-06-10T03:45:08.425Z,85
2016-06-10T03:46:08.397Z,90
2016-06-10T03:47:08.368Z,95
2016-06-10T03:48:08.341Z,95
2016-06-10T03:49:08.328Z,100
2016-06-10T03:50:08.300Z,105
2016-06-10T03:51:08.271Z,105
2016-06-10T03:52:08.243Z,110
2016-06-10T03:53:08.090Z,115
2016-06-10T03:54:08.218Z,120
2016-06-10T03:55:08.033Z,125
2016-06-10T03:56:08.521Z,130
2016-06-10T03:57:08.150Z,140
2016-06-10T03:58:08.137Z,145
2016-06-10T03:59:08.093Z,150
2016-06-10T04:00:08.064Z,155
2016-06-10T04:01:08.052Z,160
2016-06-10T04:02:08.040Z,165
2016-06-10T04:03:07.995Z,170
2016-06-10T04:04:07.983Z,175
2016-06-10T04:05:07.971Z,180
2016-06-10T04:06:07.942Z,185
2016-06-10T04:07:07.914Z,190
2016-06-10T04:08:07.886Z,195
2016-06-10T04:09:07.873Z,200
2016-06-10T04:10:07.876Z,205
2016-06-10T04:11:08.520Z,210
2016-06-10T04:12:07.804Z,215
2016-06-10T04:13:07.793Z,215
2016-06-10T04:14:07.764Z,220
2016-06-10T04:15:07.579Z,225
2016-06-10T04:16:07.723Z,225
2016-06-10T04:17:07.710Z,225
2016-06-10T04:18:07.683Z,215
2016-06-10T04:19:07.811Z,205
2016-06-10T04:20:07.642Z,200
2016-06-10T04:21:07.598Z,195
2016-06-10T04:22:07.430Z,195
2016-06-10T04:23:07.698Z,195
2016-06-10T04:24:07.780Z,200
2016-06-10T04:25:07.516Z,200
2016-06-10T04:26:08.395Z,210
2016-06-10T04:27:07.773Z,220
2016-06-10T04:28:07.870Z,225
2016-06-10T04:29:07.435Z,235
2016-06-10T04:30:07.407Z,240
2016-06-10T04:31:07.394Z,245
2016-06-10T04:32:07.226Z,255
2016-06-10T04:33:07.354Z,265
2016-06-10T04:34:07.325Z,270
2016-06-10T04:35:07.313Z,275
2016-06-10T04:36:07.284Z,280
2016-06-10T04:37:07.256Z,280
2016-06-10T04:38:07.244Z,285
2016-06-10T04:39:07.215Z,285
2016-06-10T04:40:07.187Z,290
2016-06-10T04:41:07.706Z,295
2016-06-10T04:42:07.147Z,295
2016-06-10T04:43:07.134Z,300
2016-06-10T04:44:07.106Z,305
2016-06-10T04:45:07.094Z,310
2016-06-10T04:46:07.065Z,310
2016-06-10T04:47:07.053Z,310
2016-06-10T04:48:06.868Z,310
2016-06-10T04:49:07.012Z,310
2016-06-10T04:50:06.984Z,310
2016-06-10T04:51:06.971Z,310
2016-06-10T04:52:06.943Z,315
2016-06-10T04:53:06.775Z,320
2016-06-10T04:54:06.933Z,330
2016-06-10T04:55:06.890Z,340
2016-06-10T04:56:07.408Z,345
2016-06-10T04:57:06.834Z,355
2016-06-10T04:58:06.821Z,360
2016-06-10T04:59:06.809Z,370
2016-06-10T05:00:06.780Z,375
2016-06-10T05:01:06.768Z,385
2016-06-10T05:02:06.739Z,390
2016-06-10T05:03:06.712Z,400
2016-06-10T05:04:06.699Z,415
2016-06-10T05:05:06.686Z,415
2016-06-10T05:06:06.658Z,425
2016-06-10T05:07:06.662Z,430
2016-06-10T05:08:06.632Z,435
2016-06-10T05:09:06.635Z,445
2016-06-10T05:10:06.577Z,450
2016-06-10T05:11:06.564Z,450
2016-06-10T05:12:06.551Z,455
2016-06-10T05:13:06.523Z,460
2016-06-10T05:14:06.495Z,465
2016-06-10T05:15:06.483Z,470
2016-06-10T05:16:06.470Z,465
2016-06-10T05:17:06.442Z,470
2016-06-10T05:18:06.429Z,475
2016-06-10T05:19:06.448Z,480
2016-06-10T05:20:06.217Z,490
2016-06-10T05:21:06.361Z,505
2016-06-10T05:22:06.332Z,520
2016-06-10T05:23:06.320Z,515
2016-06-10T05:24:06.307Z,515
2016-06-10T05:25:06.295Z,515
2016-06-10T05:26:07.267Z,510
2016-06-10T05:27:06.426Z,505
2016-06-10T05:28:06.226Z,500
2016-06-10T05:29:06.229Z,495
2016-06-10T05:30:06.185Z,490
2016-06-10T05:31:06.172Z,490
2016-06-10T05:32:06.144Z,500
2016-06-10T05:33:06.147Z,505
2016-06-10T05:34:06.103Z,500
2016-06-10T05:35:06.091Z,500
2016-06-10T05:36:05.923Z,500
2016-06-10T05:37:06.051Z,510
2016-06-10T05:38:06.022Z,520
2016-06-10T05:39:06.010Z,550
2016-06-10T05:40:05.997Z,580
2016-06-10T05:41:05.813Z,610
2016-06-10T05:42:05.956Z,640
2016-06-10T05:43:05.959Z,650
2016-06-10T05:44:05.916Z,675
2016-06-10T05:45:05.903Z,715
2016-06-10T05:46:05.874Z,725
2016-06-10T05:47:05.862Z,715
2016-06-10T05:48:05.677Z,715
2016-06-10T05:49:05.822Z,725
2016-06-10T05:50:05.794Z,735
2016-06-10T05:51:05.781Z,740
2016-06-10T05:52:05.783Z,745
2016-06-10T05:53:05.740Z,770
2016-06-10T05:54:05.728Z,750
2016-06-10T05:55:05.715Z,750
2016-06-10T05:56:05.702Z,755
2016-06-10T05:57:05.549Z,755
2016-06-10T05:58:05.661Z,760
2016-06-10T05:59:05.634Z,755
2016-06-10T06:00:05.622Z,755
2016-06-10T06:01:05.624Z,760
2016-06-10T06:02:05.455Z,770
2016-06-10T06:03:05.567Z,775
2016-06-10T06:04:05.555Z,790
2016-06-10T06:05:05.543Z,815
2016-06-10T06:06:05.514Z,830
2016-06-10T06:07:05.502Z,835
2016-06-10T06:08:05.489Z,830
2016-06-10T06:09:05.477Z,835
2016-06-10T06:10:05.464Z,840
2016-06-10T06:11:05.826Z,845
2016-06-10T06:12:05.267Z,850
2016-06-10T06:13:05.411Z,860
2016-06-10T06:14:05.383Z,860
2016-06-10T06:15:05.370Z,860
2016-06-10T06:16:05.342Z,865
2016-06-10T06:17:05.189Z,875
2016-06-10T06:18:05.317Z,895
2016-06-10T06:19:05.351Z,885
2016-06-10T06:20:05.292Z,880
2016-06-10T06:21:05.264Z,890
2016-06-10T06:22:04.954Z,875
2016-06-10T06:23:05.238Z,875
2016-06-10T06:24:05.226Z,880
2016-06-10T06:25:05.198Z,880
2016-06-10T06:26:06.044Z,885
2016-06-10T06:27:05.188Z,890
2016-06-10T06:28:05.161Z,895
2016-06-10T06:29:05.148Z,895
2016-06-10T06:30:05.119Z,900
2016-06-10T06:31:05.106Z,915
2016-06-10T06:32:05.110Z,930
2016-06-10T06:33:05.066Z,945
2016-06-10T06:34:05.054Z,965
2016-06-10T06:35:05.041Z,975
2016-06-10T06:36:05.028Z,980
2016-06-10T06:37:05.016Z,970
2016-06-10T06:38:04.988Z,975
2016-06-10T06:39:04.991Z,950
2016-06-10T06:40:04.962Z,945
2016-06-10T06:41:05.091Z,945
2016-06-10T06:42:05.906Z,930
2016-06-10T06:43:04.909Z,920
2016-06-10T06:44:04.897Z,905
2016-06-10T06:45:04.885Z,930
2016-06-10T06:46:04.872Z,910
2016-06-10T06:47:04.875Z,935
2016-06-10T06:48:04.847Z,975
2016-06-10T06:49:04.834Z,950
2016-06-10T06:50:04.806Z,960
2016-06-10T06:51:04.965Z,975
2016-06-10T06:52:04.766Z,1005
2016-06-10T06:53:04.752Z,1020
2016-06-10T06:54:04.755Z,1090
2016-06-10T06:55:04.743Z,1095
2016-06-10T06:56:05.543Z,1175
2016-06-10T06:57:05.203Z,1150
2016-06-10T06:58:04.690Z,1030
2016-06-10T06:59:04.678Z,1065
2016-06-10T07:00:04.648Z,1085
2016-06-10T07:01:04.652Z,1305
2016-06-10T07:02:04.687Z,1235
2016-06-10T07:03:04.611Z,1275
2016-06-10T07:04:04.599Z,1290
2016-06-10T07:05:04.587Z,1265
2016-06-10T07:06:04.574Z,1465
2016-06-10T07:07:04.405Z,1960
2016-06-10T07:08:04.377Z,1635
2016-06-10T07:09:04.521Z,1585
2016-06-10T07:10:04.493Z,1655
2016-06-10T07:11:05.698Z,2235
2016-06-10T07:12:04.733Z,1870
2016-06-10T07:13:04.471Z,1290
2016-06-10T07:14:04.442Z,1305
2016-06-10T07:15:04.445Z,1425
2016-06-10T07:16:04.417Z,1410
2016-06-10T07:17:04.404Z,1245
2016-06-10T07:18:04.392Z,1270
2016-06-10T07:19:04.379Z,1440
2016-06-10T07:20:04.367Z,1435
2016-06-10T07:21:04.355Z,1560
2016-06-10T07:22:04.404Z,1545
2016-06-10T07:23:04.344Z,1630
2016-06-10T07:24:04.316Z,1650
2016-06-10T07:25:04.570Z,1650
2016-06-10T07:26:04.292Z,1685
2016-06-10T07:27:04.279Z,1645
2016-06-10T07:28:04.267Z,1595
2016-06-10T07:29:04.254Z,1490
2016-06-10T07:30:04.226Z,1530
2016-06-10T07:31:04.433Z,1415
2016-06-10T07:32:04.216Z,1380
2016-06-10T07:33:04.188Z,1400
2016-06-10T07:34:04.176Z,1405
2016-06-10T07:35:04.006Z,1325
2016-06-10T07:36:04.150Z,1310
2016-06-10T07:37:04.153Z,1295
2016-06-10T07:38:04.126Z,1275
2016-06-10T07:39:04.129Z,1285
2016-06-10T07:40:04.804Z,1285
2016-06-10T07:41:03.947Z,1285
2016-06-10T07:42:04.091Z,1295
2016-06-10T07:43:04.063Z,1320
2016-06-10T07:44:04.067Z,1340
2016-06-10T07:45:04.162Z,1350
2016-06-10T07:46:04.040Z,1365
2016-06-10T07:47:04.012Z,1390
2016-06-10T07:48:03.999Z,1355
2016-06-10T07:49:04.003Z,1405
2016-06-10T07:50:03.974Z,1400
2016-06-10T07:51:03.978Z,1485
2016-06-10T07:52:03.949Z,1630
2016-06-10T07:53:03.796Z,1660
2016-06-10T07:54:03.940Z,1815
2016-06-10T07:55:03.928Z,2250
2016-06-10T07:56:03.774Z,2145
2016-06-10T07:57:04.387Z,2790
2016-06-10T07:58:03.578Z,2945
2016-06-10T07:59:03.877Z,2685
2016-06-10T08:00:03.911Z,2840
2016-06-10T08:01:03.869Z,2790
2016-06-10T08:02:03.856Z,2860
2016-06-10T08:03:03.827Z,2800
2016-06-10T08:04:03.831Z,2980
2016-06-10T08:05:04.021Z,2750
2016-06-10T08:06:03.821Z,3110
2016-06-10T08:07:03.637Z,2785
2016-06-10T08:08:03.780Z,2650
2016-06-10T08:09:04.221Z,2795
2016-06-10T08:10:03.614Z,3130
2016-06-10T08:11:03.758Z,3085
2016-06-10T08:12:03.745Z,3060
2016-06-10T08:13:03.734Z,3145
2016-06-10T08:14:03.721Z,2520
2016-06-10T08:15:04.723Z,2735
2016-06-10T08:16:03.711Z,2590
2016-06-10T08:17:03.699Z,2105
2016-06-10T08:18:03.545Z,2115
2016-06-10T08:19:03.533Z,2105
2016-06-10T08:20:03.677Z,2120
2016-06-10T08:21:03.523Z,2135
2016-06-10T08:22:03.823Z,1880
2016-06-10T08:23:03.670Z,1885
2016-06-10T08:24:04.954Z,1755
2016-06-10T08:25:03.676Z,1685
2016-06-10T08:26:03.476Z,1600
2016-06-10T08:27:03.619Z,1560
2016-06-10T08:28:03.607Z,1550
2016-06-10T08:29:03.297Z,1485
2016-06-10T08:30:03.597Z,1485
2016-06-10T08:31:03.600Z,1485
2016-06-10T08:32:03.573Z,1485
2016-06-10T08:33:03.575Z,2060
2016-06-10T08:34:03.562Z,3280
2016-06-10T08:35:03.550Z,2705
2016-06-10T08:36:03.554Z,2690
2016-06-10T08:37:03.557Z,1875
2016-06-10T08:38:03.528Z,1745
2016-06-10T08:39:03.797Z,1680
2016-06-10T08:40:03.503Z,1710
2016-06-10T08:41:03.491Z,1790
2016-06-10T08:42:03.854Z,1760
2016-06-10T08:43:03.465Z,1785
2016-06-10T08:44:03.468Z,1965
2016-06-10T08:45:03.456Z,1730
2016-06-10T08:46:03.459Z,1805
2016-06-10T08:47:03.447Z,1685
2016-06-10T08:48:03.434Z,1680
2016-06-10T08:49:03.422Z,1665
2016-06-10T08:50:03.409Z,1545
2016-06-10T08:51:03.397Z,1605
2016-06-10T08:52:03.243Z,1685
2016-06-10T08:53:03.387Z,1840
2016-06-10T08:54:03.374Z,2005
2016-06-10T08:55:03.363Z,1990
2016-06-10T08:56:03.350Z,1695
2016-06-10T08:57:04.024Z,1965
2016-06-10T08:58:03.340Z,2035
2016-06-10T08:59:03.328Z,1770
2016-06-10T09:00:03.300Z,1975
2016-06-10T09:01:03.303Z,2550
2016-06-10T09:02:03.290Z,2290
2016-06-10T09:03:03.277Z,2020
2016-06-10T09:04:03.265Z,2310
2016-06-10T09:05:03.096Z,2670
2016-06-10T09:06:03.240Z,2205
2016-06-10T09:07:03.243Z,2255
2016-06-10T09:08:03.230Z,2095
2016-06-10T09:09:03.233Z,2000
2016-06-10T09:10:03.064Z,1975
2016-06-10T09:11:03.192Z,1880
2016-06-10T09:12:03.086Z,2310
2016-06-10T09:13:03.182Z,1935
2016-06-10T09:14:03.171Z,2145
2016-06-10T09:15:03.174Z,2105
2016-06-10T09:16:03.160Z,2690
2016-06-10T09:17:03.180Z,2115
2016-06-10T09:18:03.136Z,1735
2016-06-10T09:19:03.154Z,1735
2016-06-10T09:20:03.126Z,1815
2016-06-10T09:21:03.129Z,1735
2016-06-10T09:22:02.976Z,1735
2016-06-10T09:23:03.104Z,1480
2016-06-10T09:24:03.139Z,1645
2016-06-10T09:25:02.939Z,1775
2016-06-10T09:26:03.083Z,2365
2016-06-10T09:27:03.586Z,3010
2016-06-10T09:28:03.104Z,3010
2016-06-10T09:29:03.106Z,2990
2016-06-10T09:30:03.063Z,3035
2016-06-10T09:31:03.051Z,3095
2016-06-10T09:32:03.116Z,2470
2016-06-10T09:33:03.027Z,2325
2016-06-10T09:34:02.872Z,2230
2016-06-10T09:35:03.016Z,2635
2016-06-10T09:36:03.003Z,3075
2016-06-10T09:37:03.006Z,2995
2016-06-10T09:38:02.994Z,2840
2016-06-10T09:39:02.981Z,2875
2016-06-10T09:40:02.985Z,2930
2016-06-10T09:41:02.972Z,2965
2016-06-10T09:42:03.007Z,2990
2016-06-10T09:43:03.916Z,2705
2016-06-10T09:44:02.950Z,2740
2016-06-10T09:45:02.938Z,2880
2016-06-10T09:46:02.941Z,2815
2016-06-10T09:47:02.928Z,2805
2016-06-10T09:48:02.775Z,2780
2016-06-10T09:49:02.919Z,2860
2016-06-10T09:50:02.922Z,2855
2016-06-10T09:51:02.752Z,2920
2016-06-10T09:52:02.913Z,2935
2016-06-10T09:53:02.916Z,2905
2016-06-10T09:54:02.919Z,2935
2016-06-10T09:55:02.890Z,2970
2016-06-10T09:56:02.893Z,3045
2016-06-10T09:57:03.115Z,2965
2016-06-10T09:58:02.884Z,2990
2016-06-10T09:59:02.871Z,2910
2016-06-10T10:00:02.874Z,2905
2016-06-10T10:01:02.862Z,2905
2016-06-10T10:02:02.880Z,2965
2016-06-10T10:03:02.852Z,2955
2016-06-10T10:04:02.872Z,3000
2016-06-10T10:05:02.859Z,2985
2016-06-10T10:06:02.862Z,3035
2016-06-10T10:07:02.849Z,3000
2016-06-10T10:08:02.837Z,2930
2016-06-10T10:09:02.840Z,2950
2016-06-10T10:10:02.843Z,2845
2016-06-10T10:11:02.893Z,2820
2016-06-10T10:12:03.333Z,2715
2016-06-10T10:13:03.695Z,2975
2016-06-10T10:14:02.870Z,2950
2016-06-10T10:15:02.717Z,2945
2016-06-10T10:16:02.659Z,2760
2016-06-10T10:17:02.707Z,2640
2016-06-10T10:18:02.507Z,2690
2016-06-10T10:19:02.651Z,2820
2016-06-10T10:20:02.639Z,3045
2016-06-10T10:21:02.627Z,2870
2016-06-10T10:22:02.785Z,2865
2016-06-10T10:23:02.617Z,2860
2016-06-10T10:24:02.776Z,2575
2016-06-10T10:25:02.686Z,1440
2016-06-10T10:26:02.610Z,890
2016-06-10T10:27:03.379Z,845
2016-06-10T10:28:03.773Z,930
2016-06-10T10:29:02.760Z,1615
2016-06-10T10:30:02.747Z,2465
2016-06-10T10:31:02.594Z,2765
2016-06-10T10:32:02.738Z,2745
2016-06-10T10:33:02.725Z,2750
2016-06-10T10:34:02.714Z,3075
2016-06-10T10:35:02.560Z,3145
2016-06-10T10:36:02.704Z,3210
2016-06-10T10:37:02.707Z,3105
2016-06-10T10:38:02.694Z,3160
2016-06-10T10:39:02.541Z,3165
2016-06-10T10:40:02.685Z,3155
2016-06-10T10:41:02.376Z,3055
2016-06-10T10:42:02.832Z,3230
2016-06-10T10:43:02.538Z,3335
2016-06-10T10:44:02.665Z,3200
2016-06-10T10:45:02.794Z,3115
2016-06-10T10:46:02.657Z,3190
2016-06-10T10:47:02.753Z,3205
2016-06-10T10:48:02.646Z,3175
2016-06-10T10:49:02.477Z,3380
2016-06-10T10:50:02.638Z,3345
2016-06-10T10:51:02.641Z,3365
2016-06-10T10:52:02.612Z,3375
2016-06-10T10:53:02.615Z,3370
2016-06-10T10:54:02.603Z,3405
2016-06-10T10:55:02.606Z,3575
2016-06-10T10:56:02.610Z,3625
2016-06-10T10:57:02.925Z,3855
2016-06-10T10:58:03.256Z,3950
2016-06-10T10:59:02.603Z,4060
2016-06-10T11:00:02.464Z,3080
2016-06-10T11:01:02.608Z,3690
2016-06-10T11:02:02.595Z,3410
2016-06-10T11:03:02.599Z,3390
2016-06-10T11:04:02.587Z,3310
2016-06-10T11:05:02.590Z,3000
2016-06-10T11:06:02.593Z,3285
2016-06-10T11:07:02.580Z,3180
2016-06-10T11:08:02.583Z,3315
2016-06-10T11:09:02.586Z,2925
2016-06-10T11:10:02.589Z,3055
2016-06-10T11:11:02.437Z,3285
2016-06-10T11:12:02.673Z,2655
2016-06-10T11:13:02.599Z,3825
2016-06-10T11:14:02.586Z,2660
2016-06-10T11:15:02.620Z,2570
2016-06-10T11:16:02.561Z,2550
2016-06-10T11:17:02.564Z,2880
2016-06-10T11:18:02.567Z,2995
2016-06-10T11:19:02.570Z,3185
2016-06-10T11:20:02.558Z,2515
2016-06-10T11:21:02.546Z,2415
2016-06-10T11:22:02.549Z,2210
2016-06-10T11:23:02.410Z,2360
2016-06-10T11:24:02.539Z,2225
2016-06-10T11:25:02.541Z,3560
2016-06-10T11:26:02.530Z,2445
2016-06-10T11:27:02.642Z,2325
2016-06-10T11:28:03.489Z,2030
2016-06-10T11:29:02.523Z,3225
2016-06-10T11:30:02.525Z,3395
2016-06-10T11:31:02.514Z,2560
2016-06-10T11:32:02.501Z,2385
2016-06-10T11:33:02.520Z,2700
2016-06-10T11:34:02.335Z,2805
2016-06-10T11:35:02.338Z,2550
2016-06-10T11:36:02.513Z,3025
2016-06-10T11:37:02.547Z,2985
2016-06-10T11:38:02.472Z,2930
2016-06-10T11:39:02.476Z,3470
2016-06-10T11:40:02.463Z,3800
2016-06-10T11:41:02.465Z,3240
2016-06-10T11:42:02.297Z,2805
2016-06-10T11:43:02.597Z,3615
2016-06-10T11:44:02.459Z,2700
2016-06-10T11:45:02.501Z,3060
2016-06-10T11:46:02.528Z,2370
2016-06-10T11:47:02.586Z,3010
2016-06-10T11:48:02.613Z,2975
2016-06-10T11:49:02.629Z,3285
2016-06-10T11:50:02.631Z,3235
2016-06-10T11:51:02.648Z,3100
2016-06-10T11:52:02.494Z,3580
2016-06-10T11:53:02.668Z,3910
2016-06-10T11:54:02.665Z,3525
2016-06-10T11:55:02.673Z,3205
2016-06-10T11:56:02.525Z,3430
2016-06-10T11:57:02.690Z,3070
2016-06-10T11:58:02.526Z,3065
2016-06-10T11:59:02.533Z,3065
2016-06-10T12:00:02.678Z,3165
2016-06-10T12:01:02.527Z,3290
2016-06-10T12:02:02.673Z,3230
2016-06-10T12:03:02.522Z,3300
2016-06-10T12:04:02.667Z,3315
2016-06-10T12:05:02.670Z,3450
2016-06-10T12:06:02.674Z,3470
2016-06-10T12:07:02.661Z,3280
2016-06-10T12:08:02.665Z,3225
2016-06-10T12:09:02.512Z,3210
2016-06-10T12:10:02.655Z,3325
2016-06-10T12:11:02.644Z,3320
2016-06-10T12:12:02.648Z,3250
2016-06-10T12:13:03.432Z,3085
2016-06-10T12:14:02.670Z,3080
2016-06-10T12:15:02.641Z,3155
2016-06-10T12:16:02.645Z,3310
2016-06-10T12:17:02.631Z,3335
2016-06-10T12:18:02.479Z,3225
2016-06-10T12:19:02.638Z,3240
2016-06-10T12:20:02.626Z,3380
2016-06-10T12:21:02.613Z,3405
2016-06-10T12:22:02.616Z,3400
2016-06-10T12:23:02.619Z,3385
2016-06-10T12:24:02.608Z,3345
2016-06-10T12:25:02.626Z,3465
2016-06-10T12:26:02.597Z,3420
2016-06-10T12:27:02.631Z,3485
2016-06-10T12:28:02.682Z,3405
2016-06-10T12:29:02.622Z,3565
2016-06-10T12:30:02.594Z,3550
2016-06-10T12:31:02.597Z,3655
2016-06-10T12:32:02.677Z,3755
2016-06-10T12:33:02.587Z,3650
2016-06-10T12:34:02.606Z,3565
2016-06-10T12:35:02.625Z,3540
2016-06-10T12:36:02.581Z,3535
2016-06-10T12:37:02.428Z,3610
2016-06-10T12:38:02.618Z,3600
2016-06-10T12:39:02.575Z,3675
2016-06-10T12:40:02.718Z,3610
2016-06-10T12:41:02.565Z,3495
2016-06-10T12:42:02.568Z,3540
2016-06-10T12:43:02.322Z,3045
2016-06-10T12:44:02.559Z,3375
2016-06-10T12:45:02.250Z,3450
2016-06-10T12:46:02.440Z,3275
2016-06-10T12:47:02.568Z,3245
2016-06-10T12:48:02.556Z,3115
2016-06-10T12:49:02.559Z,3240
2016-06-10T12:50:02.562Z,3250
2016-06-10T12:51:02.566Z,3140
2016-06-10T12:52:02.552Z,3030
2016-06-10T12:53:02.415Z,3090
2016-06-10T12:54:02.558Z,3310
2016-06-10T12:55:02.561Z,3335
2016-06-10T12:56:02.548Z,3365
2016-06-10T12:57:02.552Z,3495
2016-06-10T12:58:02.493Z,3445
2016-06-10T12:59:02.418Z,3415
2016-06-10T13:00:02.530Z,3455
2016-06-10T13:01:02.563Z,3420
2016-06-10T13:02:02.536Z,3525
2016-06-10T13:03:02.539Z,3330
2016-06-10T13:04:02.542Z,2955
2016-06-10T13:05:02.373Z,3085
2016-06-10T13:06:02.892Z,2670
2016-06-10T13:07:02.521Z,2775
2016-06-10T13:08:02.523Z,3060
2016-06-10T13:09:02.371Z,3260
2016-06-10T13:10:02.529Z,3070
2016-06-10T13:11:02.532Z,3065
2016-06-10T13:12:02.520Z,2980
2016-06-10T13:13:03.147Z,3025
2016-06-10T13:14:02.807Z,3235
2016-06-10T13:15:02.514Z,3275
2016-06-10T13:16:02.532Z,3370
2016-06-10T13:17:02.363Z,3515
2016-06-10T13:18:02.507Z,3600
2016-06-10T13:19:02.526Z,3510
2016-06-10T13:20:02.497Z,3265
2016-06-10T13:21:02.500Z,2970
2016-06-10T13:22:02.489Z,3125
2016-06-10T13:23:02.492Z,3245
2016-06-10T13:24:02.495Z,3270
2016-06-10T13:25:02.498Z,3375
2016-06-10T13:26:02.485Z,3365
2016-06-10T13:27:02.488Z,3385
2016-06-10T13:28:02.335Z,3415
2016-06-10T13:29:03.525Z,3490
2016-06-10T13:30:02.481Z,3435
2016-06-10T13:31:02.484Z,3495
2016-06-10T13:32:02.487Z,3520
2016-06-10T13:33:02.726Z,3605
2016-06-10T13:34:03.416Z,3635
2016-06-10T13:35:03.169Z,3365
2016-06-10T13:36:03.249Z,3325
2016-06-10T13:37:03.035Z,3335
2016-06-10T13:38:03.178Z,3380
2016-06-10T13:39:03.150Z,3540
2016-06-10T13:40:03.153Z,3445
2016-06-10T13:41:03.140Z,3265
2016-06-10T13:42:03.472Z,3385
2016-06-10T13:43:03.021Z,3250
2016-06-10T13:44:03.571Z,3275
2016-06-10T13:45:03.246Z,3225
2016-06-10T13:46:03.062Z,3105